Hiland, WY (82638)

1:45 AM MDT on September 18, 2014 (GMT -0600)
Natrona County International | Change Station
CLOSE
Current Station
Airport
Location: Casper,
Elevation: 5289 ft
Nearby Weather Stations

Elev 5289 ft 42.90 °N, 106.47 °W | Updated 52 minutes ago

Clear
Clear
51 °F
Feels Like 51 °F
N
4
Wind Variable Wind from West

Today
High -- | Low -- °F
--% Chance of Precip.
Yesterday
High -- | Low -- °F
Precip. -- in
6:52 AM 7:13 PM
Waning Crescent, 29% visible
Pressure 29.86 in
Visibility 10.0 miles
Clouds Clear
Dew Point 37 °F
Humidity 59%
Rainfall 0.00 in
Snow Depth Not available.
UV 0 out of 12
Pollen 6.10 out of 12
Air Quality Not available.
Flu Activity Not available.
METAR KCPR 180653Z AUTO 28003KT 10SM CLR 11/03 A3004 RMK AO2 SLP112 T01060028 402940100

More Conditions Fewer Conditions

Pressure 29.86 in
Visibility 10.0 miles
Clouds Clear
Dew Point 37 °F
Humidity 59%
Rainfall 0.00 in
Snow Depth Not available.
UV 0 out of 12
Pollen 6.10 out of 12
Air Quality Not available.
Flu Activity Not available.
METAR KCPR 180653Z AUTO 28003KT 10SM CLR 11/03 A3004 RMK AO2 SLP112 T01060028 402940100

More Conditions Fewer Conditions

10-Day Weather Forecast

Almanac

Astronomy

Sep. 18, 2014 Rise Set
Actual Time 6:52 AM MDT 7:13 PM MDT
Civil Twilight 6:23 AM MDT 7:42 PM MDT
Nautical Twilight 5:50 AM MDT 8:15 PM MDT
Astronomical Twilight 5:15 AM MDT 8:50 PM MDT
Moon 1:40 AM MDT 4:12 PM MDT
Length of Visible Light 13h 18m
Length of Day
12h 21m
Tomorrow will be 2m 55s shorter.
Waning Crescent, 29% of the Moon is Illuminated
Today
Waning Crescent
Sep 24
New
Oct 1
First Quarter
Oct 8
Full
Oct 15
Last Quarter

Today's Extremes

State Highs State Lows

Community

WunderPhotos

Upload Photos

1,754,299 photos uploaded!

Nearby

Snow Depth

Station Depth Elevation
Sand Lake 1 in 10050 ft
Hansen Sawmill 0 in 8360 ft
Townsend Creek 0 in 8700 ft
Snake River Station 0 in 6920 ft
Spring Creek Divide 0 in 9000 ft

Earthquake Activity

City Distance Mag. Time & Date
No recent earthquake activity has been reported nearby.
Minimum magnitude displayed is 2.5.

Coastal Water Temperatures

Place Temperature
No Stations Reporting

Nearby Weather Stations